Time,TemperatureF,DewpointF,PressureIn,WindDirection,WindDirectionDegrees,WindSpeedMPH,WindSpeedGustMPH,Humidity,HourlyPrecipIn,Conditions,Clouds,dailyrainin,SoftwareType,DateUTC
2013-10-02 00:00:00,54.8,52.8,29.56,NW,307,0.0,0.0,93,0.00,,,0.01,Wunderground v.1.15,2013-10-02 04:00:00,
2013-10-02 00:05:00,54.9,53.2,29.56,NW,307,1.0,1.0,94,0.00,,,0.00,Wunderground v.1.15,2013-10-02 04:05:00,
2013-10-02 00:10:00,54.9,52.9,29.56,NW,307,1.0,1.0,93,0.00,,,0.00,Wunderground v.1.15,2013-10-02 04:10:00,
2013-10-02 00:15:00,54.8,52.8,29.56,NW,307,0.0,1.0,93,0.00,,,0.00,Wunderground v.1.15,2013-10-02 04:15:00,
2013-10-02 00:20:00,54.7,52.7,29.56,NW,307,0.0,1.0,93,0.00,,,0.00,Wunderground v.1.15,2013-10-02 04:20:00,
2013-10-02 00:25:00,54.9,53.2,29.56,NW,307,0.0,1.0,94,0.00,,,0.00,Wunderground v.1.15,2013-10-02 04:25:00,
2013-10-02 00:30:00,54.9,53.2,29.56,NW,307,0.0,0.0,94,0.00,,,0.00,Wunderground v.1.15,2013-10-02 04:30:00,
2013-10-02 00:40:00,55.4,53.7,29.56,NW,307,1.0,1.0,94,0.00,,,0.00,Wunderground v.1.15,2013-10-02 04:40:00,
2013-10-02 00:45:00,55.5,53.5,29.56,NW,307,1.0,1.0,93,0.00,,,0.00,Wunderground v.1.15,2013-10-02 04:45:00,
2013-10-02 00:50:00,55.6,53.6,29.56,NW,307,1.0,2.0,93,0.00,,,0.00,Wunderground v.1.15,2013-10-02 04:50:00,
2013-10-02 00:55:00,56.8,54.5,29.56,WNW,283,2.0,2.0,92,0.00,,,0.00,Wunderground v.1.15,2013-10-02 04:55:00,
2013-10-02 01:00:00,57.5,54.6,29.56,WNW,287,2.0,2.0,90,0.00,,,0.00,Wunderground v.1.15,2013-10-02 05:00:00,
2013-10-02 01:05:00,57.5,54.0,29.56,WNW,285,1.0,2.0,88,0.00,,,0.00,Wunderground v.1.15,2013-10-02 05:05:00,
2013-10-02 01:10:00,57.0,53.5,29.56,WNW,285,0.0,0.0,88,0.00,,,0.00,Wunderground v.1.15,2013-10-02 05:10:00,
2013-10-02 01:20:00,55.7,52.5,29.56,WNW,285,0.0,0.0,89,0.00,,,0.00,Wunderground v.1.15,2013-10-02 05:20:00,
2013-10-02 01:25:00,54.9,52.0,29.56,WNW,285,0.0,0.0,90,0.00,,,0.00,Wunderground v.1.15,2013-10-02 05:25:00,
2013-10-02 01:30:00,54.8,52.8,29.57,WNW,285,0.0,1.0,93,0.00,,,0.00,Wunderground v.1.15,2013-10-02 05:30:00,
2013-10-02 01:35:00,54.9,52.9,29.57,WNW,285,0.0,1.0,93,0.00,,,0.00,Wunderground v.1.15,2013-10-02 05:35:00,
2013-10-02 01:40:00,54.7,52.7,29.56,WNW,285,0.0,0.0,93,0.00,,,0.00,Wunderground v.1.15,2013-10-02 05:40:00,
2013-10-02 01:45:00,54.5,52.5,29.56,WNW,285,0.0,0.0,93,0.00,,,0.00,Wunderground v.1.15,2013-10-02 05:45:00,
2013-10-02 01:50:00,54.3,52.3,29.56,WNW,285,0.0,0.0,93,0.00,,,0.00,Wunderground v.1.15,2013-10-02 05:50:00,
2013-10-02 02:00:00,54.0,52.0,29.56,WNW,285,0.0,0.0,93,0.00,,,0.00,Wunderground v.1.15,2013-10-02 06:00:00,
2013-10-02 02:10:00,53.6,51.9,29.56,WNW,285,0.0,0.0,94,0.00,,,0.00,Wunderground v.1.15,2013-10-02 06:10:00,
2013-10-02 02:20:00,53.0,51.3,29.56,WNW,285,0.0,0.0,94,0.00,,,0.00,Wunderground v.1.15,2013-10-02 06:20:00,
2013-10-02 02:30:00,52.8,51.1,29.56,WNW,285,0.0,0.0,94,0.00,,,0.00,Wunderground v.1.15,2013-10-02 06:30:00,
2013-10-02 02:40:00,52.5,51.1,29.56,WNW,285,0.0,0.0,95,0.00,,,0.00,Wunderground v.1.15,2013-10-02 06:40:00,
2013-10-02 02:50:00,51.7,50.0,29.56,WNW,285,0.0,2.0,94,0.00,,,0.00,Wunderground v.1.15,2013-10-02 06:50:00,
2013-10-02 03:00:00,51.2,49.8,29.56,WNW,285,0.0,1.0,95,0.00,,,0.00,Wunderground v.1.15,2013-10-02 07:00:00,
2013-10-02 03:10:00,51.2,50.1,29.56,WNW,285,0.0,0.0,96,0.00,,,0.00,Wunderground v.1.15,2013-10-02 07:10:00,
2013-10-02 03:20:00,51.2,50.1,29.55,WNW,285,0.0,0.0,96,0.00,,,0.00,Wunderground v.1.15,2013-10-02 07:20:00,
2013-10-02 03:30:00,51.1,50.0,29.55,WNW,285,0.0,0.0,96,0.00,,,0.00,Wunderground v.1.15,2013-10-02 07:30:00,
2013-10-02 03:40:00,50.7,49.6,29.55,WNW,285,0.0,0.0,96,0.00,,,0.00,Wunderground v.1.15,2013-10-02 07:40:00,
2013-10-02 03:50:00,50.5,49.4,29.56,WNW,285,0.0,0.0,96,0.00,,,0.00,Wunderground v.1.15,2013-10-02 07:50:00,
2013-10-02 04:00:00,50.4,49.3,29.55,WNW,285,0.0,0.0,96,0.00,,,0.00,Wunderground v.1.15,2013-10-02 08:00:00,
2013-10-02 04:10:00,49.9,48.8,29.56,WNW,285,0.0,0.0,96,0.00,,,0.00,Wunderground v.1.15,2013-10-02 08:10:00,
2013-10-02 04:20:00,50.0,48.9,29.55,WNW,285,0.0,0.0,96,0.00,,,0.00,Wunderground v.1.15,2013-10-02 08:20:00,
2013-10-02 04:30:00,49.8,48.7,29.55,WNW,285,0.0,0.0,96,0.00,,,0.00,Wunderground v.1.15,2013-10-02 08:30:00,
2013-10-02 04:40:00,49.1,48.0,29.54,WNW,285,0.0,0.0,96,0.00,,,0.00,Wunderground v.1.15,2013-10-02 08:40:00,
2013-10-02 04:45:00,49.0,47.9,29.54,WNW,285,0.0,0.0,96,0.00,,,0.00,Wunderground v.1.15,2013-10-02 08:45:00,
2013-10-02 04:55:00,48.8,47.7,29.54,WNW,285,0.0,0.0,96,0.00,,,0.00,Wunderground v.1.15,2013-10-02 08:55:00,
2013-10-02 05:00:00,48.6,47.5,29.54,WNW,285,0.0,0.0,96,0.00,,,0.00,Wunderground v.1.15,2013-10-02 09:00:00,
2013-10-02 05:05:00,48.5,47.4,29.54,WNW,285,0.0,0.0,96,0.00,,,0.00,Wunderground v.1.15,2013-10-02 09:05:00,
2013-10-02 05:10:00,48.2,47.1,29.54,WNW,285,0.0,0.0,96,0.00,,,0.00,Wunderground v.1.15,2013-10-02 09:10:00,
2013-10-02 05:15:00,48.1,47.0,29.54,WNW,285,0.0,0.0,96,0.00,,,0.00,Wunderground v.1.15,2013-10-02 09:15:00,
2013-10-02 05:20:00,48.1,47.0,29.53,WNW,285,0.0,0.0,96,0.00,,,0.00,Wunderground v.1.15,2013-10-02 09:20:00,
2013-10-02 05:25:00,47.9,46.8,29.54,WNW,285,0.0,0.0,96,0.00,,,0.00,Wunderground v.1.15,2013-10-02 09:25:00,
2013-10-02 05:30:00,47.9,46.8,29.54,WNW,285,0.0,0.0,96,0.00,,,0.00,Wunderground v.1.15,2013-10-02 09:30:00,
2013-10-02 05:40:00,47.7,46.6,29.54,WNW,285,0.0,0.0,96,0.00,,,0.00,Wunderground v.1.15,2013-10-02 09:40:00,
2013-10-02 05:45:00,47.6,46.5,29.54,WNW,285,0.0,0.0,96,0.00,,,0.00,Wunderground v.1.15,2013-10-02 09:45:00,
2013-10-02 05:55:00,47.3,46.2,29.54,WNW,285,0.0,0.0,96,0.00,,,0.00,Wunderground v.1.15,2013-10-02 09:55:00,
2013-10-02 06:00:00,47.2,46.1,29.54,WNW,285,0.0,1.0,96,0.00,,,0.00,Wunderground v.1.15,2013-10-02 10:00:00,
2013-10-02 06:05:00,47.0,45.9,29.54,WNW,285,0.0,1.0,96,0.00,,,0.00,Wunderground v.1.15,2013-10-02 10:05:00,
2013-10-02 06:15:00,47.0,46.2,29.54,WNW,285,0.0,0.0,97,0.00,,,0.00,Wunderground v.1.15,2013-10-02 10:15:00,
2013-10-02 06:25:00,47.2,46.4,29.54,WNW,285,0.0,0.0,97,0.00,,,0.00,Wunderground v.1.15,2013-10-02 10:25:00,
2013-10-02 06:30:00,47.0,46.2,29.54,WNW,285,0.0,0.0,97,0.00,,,0.00,Wunderground v.1.15,2013-10-02 10:30:00,
2013-10-02 06:35:00,46.9,46.1,29.54,WNW,285,0.0,0.0,97,0.00,,,0.00,Wunderground v.1.15,2013-10-02 10:35:00,
2013-10-02 06:40:00,46.9,46.1,29.54,WNW,285,0.0,0.0,97,0.00,,,0.00,Wunderground v.1.15,2013-10-02 10:40:00,
2013-10-02 06:50:00,46.9,46.1,29.54,WNW,285,0.0,0.0,97,0.00,,,0.00,Wunderground v.1.15,2013-10-02 10:50:00,
2013-10-02 06:55:00,47.0,46.2,29.54,WNW,285,0.0,0.0,97,0.00,,,0.00,Wunderground v.1.15,2013-10-02 10:55:00,
2013-10-02 07:05:00,46.9,46.1,29.54,WNW,285,0.0,0.0,97,0.00,,,0.00,Wunderground v.1.15,2013-10-02 11:05:00,
2013-10-02 07:10:00,46.9,46.1,29.54,WNW,285,0.0,0.0,97,0.00,,,0.00,Wunderground v.1.15,2013-10-02 11:10:00,
2013-10-02 07:15:00,46.8,46.0,29.54,WNW,285,0.0,0.0,97,0.00,,,0.00,Wunderground v.1.15,2013-10-02 11:15:00,
2013-10-02 07:20:00,46.8,46.0,29.54,WNW,285,0.0,0.0,97,0.00,,,0.00,Wunderground v.1.15,2013-10-02 11:20:00,
2013-10-02 07:25:00,46.8,46.0,29.54,WNW,285,0.0,0.0,97,0.00,,,0.00,Wunderground v.1.15,2013-10-02 11:25:00,
2013-10-02 07:30:00,46.9,46.1,29.54,WNW,285,0.0,0.0,97,0.00,,,0.00,Wunderground v.1.15,2013-10-02 11:30:00,
2013-10-02 07:40:00,46.9,46.1,29.54,WNW,285,0.0,0.0,97,0.00,,,0.00,Wunderground v.1.15,2013-10-02 11:40:00,
2013-10-02 07:45:00,47.0,46.2,29.55,WNW,285,0.0,0.0,97,0.00,,,0.00,Wunderground v.1.15,2013-10-02 11:45:00,
2013-10-02 07:50:00,47.2,46.4,29.54,WNW,285,0.0,0.0,97,0.00,,,0.00,Wunderground v.1.15,2013-10-02 11:50:00,
2013-10-02 08:00:00,47.6,46.8,29.55,WNW,285,0.0,0.0,97,0.00,,,0.00,Wunderground v.1.15,2013-10-02 12:00:00,
2013-10-02 08:10:00,48.4,47.6,29.55,WNW,285,0.0,0.0,97,0.00,,,0.00,Wunderground v.1.15,2013-10-02 12:10:00,
2013-10-02 08:15:00,48.6,47.8,29.55,NNE,12,1.0,1.0,97,0.00,,,0.00,Wunderground v.1.15,2013-10-02 12:15:00,
2013-10-02 08:20:00,49.3,48.8,29.55,NNE,19,1.0,2.0,98,0.00,,,0.00,Wunderground v.1.15,2013-10-02 12:20:00,
2013-10-02 08:25:00,50.0,49.5,29.55,NNE,19,1.0,2.0,98,0.00,,,0.00,Wunderground v.1.15,2013-10-02 12:25:00,
2013-10-02 08:35:00,51.2,50.7,29.55,NNE,19,0.0,0.0,98,0.00,,,0.00,Wunderground v.1.15,2013-10-02 12:35:00,
2013-10-02 08:45:00,51.5,51.0,29.54,SW,230,2.0,4.0,98,0.00,,,0.00,Wunderground v.1.15,2013-10-02 12:45:00,
2013-10-02 08:50:00,51.6,50.8,29.54,SW,236,2.0,2.0,97,0.00,,,0.00,Wunderground v.1.15,2013-10-02 12:50:00,
2013-10-02 08:55:00,52.3,51.8,29.54,SW,236,1.0,2.0,98,0.00,,,0.00,Wunderground v.1.15,2013-10-02 12:55:00,
2013-10-02 09:05:00,53.7,53.1,29.54,East,99,0.0,1.0,98,0.00,,,0.00,Wunderground v.1.15,2013-10-02 13:05:00,
2013-10-02 09:15:00,55.4,54.8,29.54,South,169,1.0,3.0,98,0.00,,,0.00,Wunderground v.1.15,2013-10-02 13:15:00,
2013-10-02 09:20:00,55.3,54.2,29.54,South,183,2.0,4.0,96,0.00,,,0.00,Wunderground v.1.15,2013-10-02 13:20:00,
2013-10-02 09:25:00,54.6,53.2,29.54,SSW,193,3.0,4.0,95,0.00,,,0.00,Wunderground v.1.15,2013-10-02 13:25:00,
2013-10-02 09:35:00,55.0,53.6,29.54,SSW,192,1.0,2.0,95,0.00,,,0.00,Wunderground v.1.15,2013-10-02 13:35:00,
2013-10-02 09:40:00,56.1,55.0,29.54,SSW,192,0.0,0.0,96,0.00,,,0.00,Wunderground v.1.15,2013-10-02 13:40:00,
2013-10-02 09:45:00,56.8,55.1,29.54,SSW,192,0.0,0.0,94,0.00,,,0.00,Wunderground v.1.15,2013-10-02 13:45:00,
2013-10-02 09:55:00,57.4,55.1,29.54,SE,131,0.0,0.0,92,0.00,,,0.00,Wunderground v.1.15,2013-10-02 13:55:00,
2013-10-02 10:00:00,57.5,55.2,29.54,SE,131,0.0,0.0,92,0.00,,,0.00,Wunderground v.1.15,2013-10-02 14:00:00,
2013-10-02 10:10:00,56.9,54.6,29.55,East,87,1.0,3.0,92,0.00,,,0.00,Wunderground v.1.15,2013-10-02 14:10:00,
2013-10-02 10:15:00,56.7,54.4,29.55,East,90,1.0,3.0,92,0.00,,,0.00,Wunderground v.1.15,2013-10-02 14:15:00,
2013-10-02 10:20:00,56.8,55.1,29.55,East,98,1.0,1.0,94,0.00,,,0.00,Wunderground v.1.15,2013-10-02 14:20:00,
2013-10-02 10:30:00,57.1,55.1,29.55,East,88,0.0,0.0,93,0.00,,,0.00,Wunderground v.1.15,2013-10-02 14:30:00,
2013-10-02 10:40:00,57.7,55.4,29.55,ENE,64,1.0,1.0,92,0.00,,,0.00,Wunderground v.1.15,2013-10-02 14:40:00,
2013-10-02 10:45:00,58.3,56.6,29.55,SSE,165,1.0,1.0,94,0.00,,,0.00,Wunderground v.1.15,2013-10-02 14:45:00,
2013-10-02 10:50:00,58.8,56.8,29.55,SE,136,1.0,2.0,93,0.00,,,0.00,Wunderground v.1.15,2013-10-02 14:50:00,
2013-10-02 11:00:00,59.2,56.9,29.54,SSE,161,1.0,1.0,92,0.00,,,0.00,Wunderground v.1.15,2013-10-02 15:00:00,
2013-10-02 11:10:00,60.7,57.4,29.55,WNW,286,1.0,11.0,89,0.00,,,0.00,Wunderground v.1.15,2013-10-02 15:10:00,
2013-10-02 11:15:00,63.3,58.0,29.55,SW,236,6.0,11.0,83,0.00,,,0.00,Wunderground v.1.15,2013-10-02 15:15:00,
2013-10-02 11:20:00,64.0,58.1,29.55,West,259,9.0,9.0,81,0.00,,,0.00,Wunderground v.1.15,2013-10-02 15:20:00,
2013-10-02 11:30:00,64.5,58.2,29.55,WSW,254,4.0,11.0,80,0.00,,,0.00,Wunderground v.1.15,2013-10-02 15:30:00,
2013-10-02 11:35:00,64.4,58.1,29.55,WSW,250,5.0,11.0,80,0.00,,,0.00,Wunderground v.1.15,2013-10-02 15:35:00,
2013-10-02 11:40:00,64.3,58.3,29.55,WSW,244,6.0,6.0,81,0.00,,,0.00,Wunderground v.1.15,2013-10-02 15:40:00,
2013-10-02 11:45:00,64.3,58.0,29.54,WNW,287,5.0,7.0,80,0.00,,,0.00,Wunderground v.1.15,2013-10-02 15:45:00,
2013-10-02 11:54:00,65.7,59.0,29.54,SSW,199,4.0,5.0,79,0.00,,,0.00,Wunderground v.1.15,2013-10-02 15:54:00,
2013-10-02 12:00:00,66.3,59.2,29.54,West,260,5.0,5.0,78,0.00,,,0.00,Wunderground v.1.15,2013-10-02 16:00:00,
2013-10-02 12:05:00,67.0,59.2,29.54,SW,231,7.0,7.0,76,0.00,,,0.00,Wunderground v.1.15,2013-10-02 16:05:00,
2013-10-02 12:10:00,67.6,59.4,29.54,WNW,287,6.0,10.0,75,0.00,,,0.00,Wunderground v.1.15,2013-10-02 16:10:00,
2013-10-02 12:20:00,67.6,59.8,29.54,NW,320,7.0,11.0,76,0.00,,,0.00,Wunderground v.1.15,2013-10-02 16:20:00,
2013-10-02 12:25:00,67.3,59.1,29.54,West,272,8.0,11.0,75,0.00,,,0.00,Wunderground v.1.15,2013-10-02 16:25:00,
2013-10-02 12:30:00,67.8,60.0,29.54,NW,304,7.0,12.0,76,0.00,,,0.00,Wunderground v.1.15,2013-10-02 16:30:00,
2013-10-02 12:35:00,67.7,59.5,29.53,SW,234,6.0,12.0,75,0.00,,,0.00,Wunderground v.1.15,2013-10-02 16:35:00,
2013-10-02 12:40:00,67.6,59.4,29.53,WNW,296,7.0,7.0,75,0.00,,,0.00,Wunderground v.1.15,2013-10-02 16:40:00,
2013-10-02 12:50:00,67.9,60.1,29.53,West,278,7.0,19.0,76,0.00,,,0.00,Wunderground v.1.15,2013-10-02 16:50:00,
2013-10-02 12:55:00,68.0,59.4,29.53,SSW,205,7.0,19.0,74,0.00,,,0.00,Wunderground v.1.15,2013-10-02 16:55:00,
2013-10-02 13:00:00,67.9,59.3,29.53,SW,229,7.0,7.0,74,0.00,,,0.00,Wunderground v.1.15,2013-10-02 17:00:00,
2013-10-02 13:10:00,68.8,60.2,29.52,SW,221,6.0,6.0,74,0.00,,,0.00,Wunderground v.1.15,2013-10-02 17:10:00,
2013-10-02 13:15:00,69.1,59.7,29.52,WSW,239,6.0,6.0,72,0.00,,,0.00,Wunderground v.1.15,2013-10-02 17:15:00,
2013-10-02 13:20:00,69.4,60.4,29.52,West,260,6.0,10.0,73,0.00,,,0.00,Wunderground v.1.15,2013-10-02 17:20:00,
2013-10-02 13:25:00,68.6,59.2,29.52,West,266,8.0,14.0,72,0.00,,,0.00,Wunderground v.1.15,2013-10-02 17:25:00,
2013-10-02 13:30:00,68.9,59.1,29.51,SW,227,10.0,10.0,71,0.00,,,0.00,Wunderground v.1.15,2013-10-02 17:30:00,
2013-10-02 13:40:00,70.3,60.1,29.51,WNW,291,7.0,9.0,70,0.00,,,0.00,Wunderground v.1.15,2013-10-02 17:40:00,
2013-10-02 13:45:00,70.6,59.9,29.51,WSW,252,8.0,17.0,69,0.00,,,0.00,Wunderground v.1.15,2013-10-02 17:45:00,
2013-10-02 13:50:00,70.3,60.4,29.51,West,265,10.0,11.0,71,0.00,,,0.00,Wunderground v.1.15,2013-10-02 17:50:00,
2013-10-02 14:00:00,71.0,60.7,29.51,WNW,298,6.0,7.0,70,0.00,,,0.00,Wunderground v.1.15,2013-10-02 18:00:00,
2013-10-02 14:10:00,71.0,59.9,29.50,West,279,9.0,9.0,68,0.00,,,0.00,Wunderground v.1.15,2013-10-02 18:10:00,
2013-10-02 14:15:00,70.8,59.3,29.50,West,271,9.0,13.0,67,0.00,,,0.00,Wunderground v.1.15,2013-10-02 18:15:00,
2013-10-02 14:20:00,70.9,58.5,29.50,NW,313,10.0,10.0,65,0.00,,,0.00,Wunderground v.1.15,2013-10-02 18:20:00,
2013-10-02 14:30:00,71.5,58.2,29.49,SSW,211,10.0,15.0,63,0.00,,,0.00,Wunderground v.1.15,2013-10-02 18:30:00,
2013-10-02 14:40:00,71.9,58.2,29.50,NW,304,11.0,17.0,62,0.00,,,0.00,Wunderground v.1.15,2013-10-02 18:40:00,
2013-10-02 14:50:00,71.7,57.5,29.49,West,271,11.0,11.0,61,0.00,,,0.00,Wunderground v.1.15,2013-10-02 18:50:00,
2013-10-02 14:55:00,72.0,58.3,29.50,NW,307,11.0,11.0,62,0.00,,,0.00,Wunderground v.1.15,2013-10-02 18:55:00,
2013-10-02 15:00:00,72.1,57.4,29.50,WSW,240,8.0,9.0,60,0.00,,,0.00,Wunderground v.1.15,2013-10-02 19:00:00,
2013-10-02 15:10:00,71.5,57.3,29.49,West,275,11.0,11.0,61,0.00,,,0.00,Wunderground v.1.15,2013-10-02 19:10:00,
2013-10-02 15:15:00,71.7,55.7,29.49,WNW,288,11.0,11.0,57,0.00,,,0.00,Wunderground v.1.15,2013-10-02 19:15:00,
2013-10-02 15:20:00,71.9,56.8,29.50,North,349,10.0,10.0,59,0.00,,,0.00,Wunderground v.1.15,2013-10-02 19:20:00,
2013-10-02 15:30:00,71.0,56.4,29.50,WSW,254,8.0,8.0,60,0.00,,,0.00,Wunderground v.1.15,2013-10-02 19:30:00,
2013-10-02 15:40:00,70.3,56.7,29.50,WSW,253,9.0,9.0,62,0.00,,,0.00,Wunderground v.1.15,2013-10-02 19:40:00,
2013-10-02 15:45:00,70.1,56.9,29.50,WSW,257,8.0,9.0,63,0.00,,,0.00,Wunderground v.1.15,2013-10-02 19:45:00,
2013-10-02 15:50:00,70.4,57.6,29.50,WNW,284,7.0,7.0,64,0.00,,,0.00,Wunderground v.1.15,2013-10-02 19:50:00,
2013-10-02 16:00:00,71.9,58.6,29.50,WSW,239,6.0,6.0,63,0.00,,,0.00,Wunderground v.1.15,2013-10-02 20:00:00,
2013-10-02 16:10:00,70.7,56.1,29.49,NW,306,8.0,9.0,60,0.00,,,0.00,Wunderground v.1.15,2013-10-02 20:10:00,
2013-10-02 16:20:00,70.9,57.2,29.50,West,279,7.0,7.0,62,0.00,,,0.00,Wunderground v.1.15,2013-10-02 20:20:00,
2013-10-02 16:25:00,70.8,57.1,29.50,WNW,294,5.0,7.0,62,0.00,,,0.00,Wunderground v.1.15,2013-10-02 20:25:00,
2013-10-02 16:35:00,70.3,56.2,29.50,WNW,283,8.0,8.0,61,0.00,,,0.00,Wunderground v.1.15,2013-10-02 20:35:00,
2013-10-02 16:40:00,69.8,56.2,29.50,NW,317,7.0,7.0,62,0.00,,,0.00,Wunderground v.1.15,2013-10-02 20:40:00,
2013-10-02 16:45:00,69.4,55.8,29.50,WSW,254,6.0,7.0,62,0.00,,,0.00,Wunderground v.1.15,2013-10-02 20:45:00,
2013-10-02 16:50:00,69.4,55.4,29.50,WNW,290,5.0,8.0,61,0.00,,,0.00,Wunderground v.1.15,2013-10-02 20:50:00,
2013-10-02 17:00:00,70.3,54.3,29.50,NW,315,8.0,9.0,57,0.00,,,0.00,Wunderground v.1.15,2013-10-02 21:00:00,
2013-10-02 17:05:00,70.4,54.4,29.50,NW,305,8.0,9.0,57,0.00,,,0.00,Wunderground v.1.15,2013-10-02 21:05:00,
2013-10-02 17:10:00,70.5,54.5,29.50,WNW,300,8.0,13.0,57,0.00,,,0.00,Wunderground v.1.15,2013-10-02 21:10:00,
2013-10-02 17:15:00,70.6,54.6,29.51,WNW,289,7.0,13.0,57,0.00,,,0.00,Wunderground v.1.15,2013-10-02 21:15:00,
2013-10-02 17:20:00,70.2,54.2,29.51,WNW,300,6.0,8.0,57,0.00,,,0.00,Wunderground v.1.15,2013-10-02 21:20:00,
2013-10-02 17:25:00,69.9,54.0,29.50,WNW,296,6.0,8.0,57,0.00,,,0.00,Wunderground v.1.15,2013-10-02 21:25:00,
2013-10-02 17:30:00,69.7,53.8,29.51,WNW,297,6.0,6.0,57,0.00,,,0.00,Wunderground v.1.15,2013-10-02 21:30:00,
2013-10-02 17:35:00,69.7,54.3,29.50,WNW,297,6.0,11.0,58,0.00,,,0.00,Wunderground v.1.15,2013-10-02 21:35:00,
2013-10-02 17:45:00,69.5,53.1,29.51,NW,316,5.0,10.0,56,0.00,,,0.00,Wunderground v.1.15,2013-10-02 21:45:00,
2013-10-02 17:50:00,69.5,53.1,29.51,WSW,248,5.0,5.0,56,0.00,,,0.00,Wunderground v.1.15,2013-10-02 21:50:00,
2013-10-02 17:55:00,69.3,52.9,29.51,NNE,23,6.0,6.0,56,0.00,,,0.00,Wunderground v.1.15,2013-10-02 21:55:00,
2013-10-02 18:00:00,69.0,53.1,29.52,NW,317,4.0,4.0,57,0.00,,,0.00,Wunderground v.1.15,2013-10-02 22:00:00,
2013-10-02 18:05:00,68.7,52.8,29.52,North,360,3.0,4.0,57,0.00,,,0.00,Wunderground v.1.15,2013-10-02 22:05:00,
2013-10-02 18:10:00,68.3,52.5,29.52,NW,326,2.0,2.0,57,0.00,,,0.00,Wunderground v.1.15,2013-10-02 22:10:00,
2013-10-02 18:20:00,67.7,52.9,29.53,NW,315,1.0,1.0,59,0.00,,,0.00,Wunderground v.1.15,2013-10-02 22:20:00,
2013-10-02 18:30:00,67.2,52.8,29.53,WNW,300,1.0,1.0,60,0.00,,,0.00,Wunderground v.1.15,2013-10-02 22:30:00,
2013-10-02 18:40:00,66.6,52.3,29.54,NW,324,1.0,1.0,60,0.00,,,0.00,Wunderground v.1.15,2013-10-02 22:40:00,
2013-10-02 18:50:00,66.2,51.9,29.54,NNW,327,1.0,3.0,60,0.00,,,0.00,Wunderground v.1.15,2013-10-02 22:50:00,
2013-10-02 19:00:00,65.9,51.2,29.54,WNW,294,2.0,2.0,59,0.00,,,0.00,Wunderground v.1.15,2013-10-02 23:00:00,
2013-10-02 19:10:00,64.5,52.0,29.54,WSW,242,1.0,1.0,64,0.00,,,0.00,Wunderground v.1.15,2013-10-02 23:10:00,
2013-10-02 19:20:00,62.7,52.8,29.55,West,264,1.0,2.0,70,0.00,,,0.00,Wunderground v.1.15,2013-10-02 23:20:00,
2013-10-02 19:25:00,62.2,52.7,29.55,SW,232,1.0,2.0,71,0.00,,,0.00,Wunderground v.1.15,2013-10-02 23:25:00,
2013-10-02 19:30:00,61.8,53.1,29.55,South,178,1.0,1.0,73,0.00,,,0.00,Wunderground v.1.15,2013-10-02 23:30:00,
2013-10-02 19:40:00,61.4,53.0,29.56,SW,217,1.0,1.0,74,0.00,,,0.00,Wunderground v.1.15,2013-10-02 23:40:00,
2013-10-02 19:50:00,61.4,52.7,29.56,SW,234,2.0,3.0,73,0.00,,,0.00,Wunderground v.1.15,2013-10-02 23:50:00,
2013-10-02 19:55:00,61.6,52.5,29.57,SSW,198,2.0,3.0,72,0.00,,,0.00,Wunderground v.1.15,2013-10-02 23:55:00,
2013-10-02 20:00:00,61.2,52.5,29.57,WNW,296,2.0,2.0,73,0.00,,,0.00,Wunderground v.1.15,2013-10-03 00:00:00,
2013-10-02 20:05:00,61.2,51.7,29.57,SE,130,1.0,2.0,71,0.00,,,0.00,Wunderground v.1.15,2013-10-03 00:05:00,
2013-10-02 20:10:00,61.4,51.5,29.57,South,190,0.0,1.0,70,0.00,,,0.00,Wunderground v.1.15,2013-10-03 00:10:00,
2013-10-02 20:20:00,63.1,50.7,29.57,SW,230,1.0,1.0,64,0.00,,,0.00,Wunderground v.1.15,2013-10-03 00:20:00,
2013-10-02 20:25:00,63.0,51.0,29.58,SW,229,0.0,1.0,65,0.00,,,0.00,Wunderground v.1.15,2013-10-03 00:25:00,
2013-10-02 20:30:00,62.5,50.6,29.58,SW,230,0.0,0.0,65,0.00,,,0.00,Wunderground v.1.15,2013-10-03 00:30:00,
2013-10-02 20:40:00,62.3,49.1,29.58,WNW,298,2.0,2.0,62,0.00,,,0.00,Wunderground v.1.15,2013-10-03 00:40:00,
2013-10-02 20:50:00,63.0,47.5,29.58,West,267,1.0,2.0,57,0.00,,,0.00,Wunderground v.1.15,2013-10-03 00:50:00,
2013-10-02 21:00:00,62.9,47.4,29.58,WNW,298,2.0,3.0,57,0.00,,,0.00,Wunderground v.1.15,2013-10-03 01:00:00,
2013-10-02 21:10:00,64.0,48.0,29.58,West,263,4.0,4.0,56,0.00,,,0.00,Wunderground v.1.15,2013-10-03 01:10:00,
2013-10-02 21:15:00,63.6,47.6,29.58,WSW,239,3.0,4.0,56,0.00,,,0.00,Wunderground v.1.15,2013-10-03 01:15:00,
2013-10-02 21:20:00,63.6,47.1,29.58,SSW,192,2.0,2.0,55,0.00,,,0.00,Wunderground v.1.15,2013-10-03 01:20:00,
2013-10-02 21:30:00,63.5,47.5,29.58,WSW,250,2.0,2.0,56,0.00,,,0.00,Wunderground v.1.15,2013-10-03 01:30:00,
2013-10-02 21:35:00,63.6,47.6,29.58,WSW,250,1.0,2.0,56,0.00,,,0.00,Wunderground v.1.15,2013-10-03 01:35:00,
2013-10-02 21:40:00,64.0,48.0,29.59,SW,229,2.0,2.0,56,0.00,,,0.00,Wunderground v.1.15,2013-10-03 01:40:00,
2013-10-02 21:50:00,64.1,48.1,29.59,West,276,2.0,3.0,56,0.00,,,0.00,Wunderground v.1.15,2013-10-03 01:50:00,
2013-10-02 21:55:00,64.2,48.2,29.59,West,279,3.0,3.0,56,0.00,,,0.00,Wunderground v.1.15,2013-10-03 01:55:00,
2013-10-02 22:00:00,63.9,48.4,29.59,West,277,4.0,6.0,57,0.00,,,0.00,Wunderground v.1.15,2013-10-03 02:00:00,
2013-10-02 22:05:00,64.1,48.5,29.60,West,274,5.0,6.0,57,0.00,,,0.00,Wunderground v.1.15,2013-10-03 02:05:00,
2013-10-02 22:10:00,64.1,48.5,29.60,WNW,296,4.0,4.0,57,0.00,,,0.00,Wunderground v.1.15,2013-10-03 02:10:00,
2013-10-02 22:15:00,63.9,48.8,29.60,West,269,4.0,6.0,58,0.00,,,0.00,Wunderground v.1.15,2013-10-03 02:15:00,
2013-10-02 22:20:00,64.0,49.4,29.60,WNW,286,5.0,5.0,59,0.00,,,0.00,Wunderground v.1.15,2013-10-03 02:20:00,
2013-10-02 22:30:00,63.7,50.0,29.61,West,281,3.0,3.0,61,0.00,,,0.00,Wunderground v.1.15,2013-10-03 02:30:00,
2013-10-02 22:35:00,63.5,50.2,29.61,WNW,289,3.0,3.0,62,0.00,,,0.00,Wunderground v.1.15,2013-10-03 02:35:00,
2013-10-02 22:40:00,63.4,50.1,29.61,WNW,283,3.0,3.0,62,0.00,,,0.00,Wunderground v.1.15,2013-10-03 02:40:00,
2013-10-02 22:50:00,63.0,50.6,29.61,WNW,296,1.0,5.0,64,0.00,,,0.00,Wunderground v.1.15,2013-10-03 02:50:00,
2013-10-02 23:00:00,62.8,51.3,29.62,WNW,292,2.0,2.0,66,0.00,,,0.00,Wunderground v.1.15,2013-10-03 03:00:00,
2013-10-02 23:09:00,62.3,51.2,29.62,WSW,256,1.0,2.0,67,0.00,,,0.00,Wunderground v.1.15,2013-10-03 03:09:00,
2013-10-02 23:15:00,62.1,51.4,29.62,WNW,298,1.0,2.0,68,0.00,,,0.00,Wunderground v.1.15,2013-10-03 03:15:00,
2013-10-02 23:20:00,62.1,51.4,29.62,WNW,297,2.0,2.0,68,0.00,,,0.00,Wunderground v.1.15,2013-10-03 03:20:00,
2013-10-02 23:30:00,61.6,51.3,29.62,WNW,286,1.0,1.0,69,0.00,,,0.00,Wunderground v.1.15,2013-10-03 03:30:00,
2013-10-02 23:40:00,60.7,51.2,29.63,WNW,292,2.0,6.0,71,0.00,,,0.00,Wunderground v.1.15,2013-10-03 03:40:00,
2013-10-02 23:50:00,61.4,51.1,29.63,WNW,290,2.0,4.0,69,0.00,,,0.00,Wunderground v.1.15,2013-10-03 03:50:00,